Ocean King D — V7TV6 — position and weather

sailwx.info

Track history (hours):
 
Tides and Currents Weather Stations Pressure Air Temp Water Temp Dewpoint Dewpoint Depression Visibility Wind Speed Wind Dir Waves Ship Positions

Ocean King D

Last reported at 2014-Nov-28 09:33 UTC. Time now 2014-Nov-28 13:31 UTC.
Position S 35°10' W 056°22'.

Length 190 m; draft 10.5 m.

Type: Cargo ship. MMSI: 538003892.

Date/timePositionNaut miles runAvg speedWind from/ knotsBaromVisibWave heightAir tempDewpointWater temp
2014-Nov-28 09:33S 35°10' W 056°22'1110.2
2014-Nov-28 08:31S 35°10' W 056°35'1010.0
2014-Nov-28 07:33S 35°10' W 056°47'1110.1
2014-Nov-28 06:27S 35°10' W 057°00'1011.4
2014-Nov-28 05:33S 35°03' W 057°10'1211.2
2014-Nov-28 04:30S 34°54' W 057°19'7 7.7
2014-Nov-28 03:34S 34°49' W 057°26'1110.7
2014-Nov-28 02:33S 34°45' W 057°38'1010.4
2014-Nov-28 01:33S 34°43' W 057°50'2 1.6
2014-Nov-28 00:31S 34°43' W 057°52'0 0.0
2014-Nov-27 23:31S 34°43' W 057°52'0 0.0
2014-Nov-27 22:31S 34°43' W 057°52'0 0.0
2014-Nov-27 21:31S 34°43' W 057°52'0 0.1
2014-Nov-27 20:31S 34°43' W 057°52'0 0.2
2014-Nov-27 19:31S 34°43' W 057°52'0 0.1
2014-Nov-27 18:31S 34°43' W 057°52'0 0.0
2014-Nov-27 17:31S 34°43' W 057°52'0 0.0
2014-Nov-27 16:31S 34°43' W 057°52'0 0.0
2014-Nov-27 15:31S 34°43' W 057°52'0 0.0
2014-Nov-27 14:31S 34°43' W 057°52'0 0.1
2014-Nov-27 11:25S 34°43' W 057°52'0 0.0
2014-Nov-27 10:31S 34°43' W 057°52'0 0.1
2014-Nov-27 09:31S 34°43' W 057°52'0 0.1
2014-Nov-27 08:31S 34°43' W 057°52'0 0.0
2014-Nov-27 07:31S 34°43' W 057°52'0 0.0
2014-Nov-27 06:31S 34°43' W 057°52'0 0.1
2014-Nov-27 05:31S 34°43' W 057°52'0 0.0
2014-Nov-27 04:28S 34°43' W 057°52'0 0.0
2014-Nov-27 03:31S 34°43' W 057°52'0 0.1
2014-Nov-27 02:28S 34°43' W 057°52'5 6.0
2014-Nov-27 01:34S 34°41' W 057°58'1010.3
2014-Nov-27 00:34S 34°37' W 058°10'9 8.8
2014-Nov-26 23:30S 34°32' W 058°19'94 5.8
2014-Nov-26 07:23S 33°33' W 059°48'  
2014-Nov-22 00:20S 34°13' W 058°05'1012.4
2014-Nov-21 23:33S 34°22' W 058°00'1212.1
2014-Nov-21 22:33S 34°34' W 057°56'1010.0
2014-Nov-21 21:33S 34°43' W 057°51'4 4.3
2014-Nov-21 20:33S 34°46' W 057°47'8 7.7
2014-Nov-21 19:33S 34°45' W 057°38'  
Track history (hours):
 
Tides and Currents Weather Stations Pressure Air Temp Water Temp Dewpoint Dewpoint Depression Visibility Wind Speed Wind Dir Waves Ship Positions

Ocean King D

Last reported at 2014-Nov-28 09:33 UTC. Time now 2014-Nov-28 13:31 UTC.
Position S 35°10' W 056°22'.

Length 190 m; draft 10.5 m.

Type: Cargo ship. MMSI: 538003892.

Date/timePositionNaut miles runAvg speedWind from/ knotsBaromVisibWave heightAir tempDewpointWater temp
2014-Nov-28 09:33S 35°10' W 056°22'1110.2
2014-Nov-28 08:31S 35°10' W 056°35'1010.0
2014-Nov-28 07:33S 35°10' W 056°47'1110.1
2014-Nov-28 06:27S 35°10' W 057°00'1011.4
2014-Nov-28 05:33S 35°03' W 057°10'1211.2
2014-Nov-28 04:30S 34°54' W 057°19'7 7.7
2014-Nov-28 03:34S 34°49' W 057°26'1110.7
2014-Nov-28 02:33S 34°45' W 057°38'1010.4
2014-Nov-28 01:33S 34°43' W 057°50'2 1.6
2014-Nov-28 00:31S 34°43' W 057°52'0 0.0
2014-Nov-27 23:31S 34°43' W 057°52'0 0.0
2014-Nov-27 22:31S 34°43' W 057°52'0 0.0
2014-Nov-27 21:31S 34°43' W 057°52'0 0.1
2014-Nov-27 20:31S 34°43' W 057°52'0 0.2
2014-Nov-27 19:31S 34°43' W 057°52'0 0.1
2014-Nov-27 18:31S 34°43' W 057°52'0 0.0
2014-Nov-27 17:31S 34°43' W 057°52'0 0.0
2014-Nov-27 16:31S 34°43' W 057°52'0 0.0
2014-Nov-27 15:31S 34°43' W 057°52'0 0.0
2014-Nov-27 14:31S 34°43' W 057°52'0 0.1
2014-Nov-27 11:25S 34°43' W 057°52'0 0.0
2014-Nov-27 10:31S 34°43' W 057°52'0 0.1
2014-Nov-27 09:31S 34°43' W 057°52'0 0.1
2014-Nov-27 08:31S 34°43' W 057°52'0 0.0
2014-Nov-27 07:31S 34°43' W 057°52'0 0.0
2014-Nov-27 06:31S 34°43' W 057°52'0 0.1
2014-Nov-27 05:31S 34°43' W 057°52'0 0.0
2014-Nov-27 04:28S 34°43' W 057°52'0 0.0
2014-Nov-27 03:31S 34°43' W 057°52'0 0.1
2014-Nov-27 02:28S 34°43' W 057°52'5 6.0
2014-Nov-27 01:34S 34°41' W 057°58'1010.3
2014-Nov-27 00:34S 34°37' W 058°10'9 8.8
2014-Nov-26 23:30S 34°32' W 058°19'94 5.8
2014-Nov-26 07:23S 33°33' W 059°48'  
2014-Nov-22 00:20S 34°13' W 058°05'1012.4
2014-Nov-21 23:33S 34°22' W 058°00'1212.1
2014-Nov-21 22:33S 34°34' W 057°56'1010.0
2014-Nov-21 21:33S 34°43' W 057°51'4 4.3
2014-Nov-21 20:33S 34°46' W 057°47'8 7.7
2014-Nov-21 19:33S 34°45' W 057°38'  

Dump ship's entire track history